首页
METAR-TAF:

METAR-TAF

机场 :

塔什干国际机场

塔什干, 乌兹别克斯坦

纬度: 41-16N, 经度: 069-16E, 海拔: 489米

当前天气观测

该预报发布于30分钟前的15:00 UTC
风速10节,风向,在西北之间变化
温度 33°C
湿度 17%
气压 1010 hPa
能见度10公里或以上
1500米以下无云,无积雨云

METAR: UTTT 161500Z 35010KT 310V010 CAVOK 33/05 Q1010 R08R/CLRD70 NOSIG

时间: 20:30 (15:30 UTC)

预报

该预报发布于4小时和30分钟前的11:00 UTC
预报有效从16日的 12点(UTC)到 17日的 12点(UTC)
风速12节,风向
能見度: 7000
短暂存在
从 16日的 12点(UTC)到 16日的 24点(UTC)
风速10节,风向西转西北,有时为20节阵风

TAF: UTTT 161100Z 1612/1712 35012KT 7000 NSC TX36/1710Z TEMPO 1612/1624 30010G20KT

超过4000个机场的气象观测和天气预报(METAR&TAF报告)。

可查询的气象台以黄色和红色小点在地图上表示。

将鼠标移到小点上方,可查看气象台名称。

然后点击查看天气观测和预报。

如需切换地图:点击带黑十字的绿色按钮放大地图;点击带横线的绿色按钮缩小地图;或者点击绿色箭头查看邻近地区的地图。


METAR-TAF: